Time,TemperatureF,DewpointF,PressureIn,WindDirection,WindDirectionDegrees,WindSpeedMPH,WindSpeedGustMPH,Humidity,HourlyPrecipIn,Conditions,Clouds,dailyrainin,SoftwareType,DateUTC
2013-03-18 00:10:00,32.8,29.0,29.86,East,94,5.0,10.0,84,0.00,,,0.00,weatherlink.com 1.10,2013-03-18 05:10:00,
2013-03-18 00:25:00,32.7,28.0,29.86,East,98,6.0,13.0,84,0.00,,,0.00,weatherlink.com 1.10,2013-03-18 05:25:00,
2013-03-18 00:41:00,32.3,29.0,29.85,East,97,5.0,10.0,86,0.00,,,0.00,weatherlink.com 1.10,2013-03-18 05:41:00,
2013-03-18 00:56:00,31.8,29.0,29.85,East,92,6.0,10.0,88,0.00,,,0.00,weatherlink.com 1.10,2013-03-18 05:56:00,
2013-03-18 01:11:00,31.7,29.0,29.84,East,91,0.0,9.0,89,0.00,,,0.00,weatherlink.com 1.10,2013-03-18 06:11:00,
2013-03-18 01:26:00,31.6,29.0,29.84,East,97,3.0,8.0,90,0.00,,,0.00,weatherlink.com 1.10,2013-03-18 06:26:00,
2013-03-18 01:41:00,31.6,29.0,29.84,East,98,0.0,0.0,90,0.00,,,0.00,weatherlink.com 1.10,2013-03-18 06:41:00,
2013-03-18 01:56:00,31.6,29.0,29.84,East,100,3.0,7.0,90,0.00,,,0.00,weatherlink.com 1.10,2013-03-18 06:56:00,
2013-03-18 02:41:00,31.1,29.0,29.81,East,98,6.0,8.0,92,0.00,,,0.00,weatherlink.com 1.10,2013-03-18 07:41:00,
2013-03-18 02:56:00,30.9,29.0,29.80,East,96,3.0,8.0,92,0.00,,,0.00,weatherlink.com 1.10,2013-03-18 07:56:00,
2013-03-18 03:11:00,30.9,29.0,29.80,East,96,3.0,7.0,93,0.00,,,0.00,weatherlink.com 1.10,2013-03-18 08:11:00,
2013-03-18 03:26:00,30.8,29.0,29.79,East,97,3.0,8.0,93,0.00,,,0.00,weatherlink.com 1.10,2013-03-18 08:26:00,
2013-03-18 03:41:00,30.8,29.0,29.79,East,97,0.0,0.0,93,0.00,,,0.00,weatherlink.com 1.10,2013-03-18 08:41:00,
2013-03-18 04:11:00,30.8,29.0,29.79,East,97,0.0,0.0,93,0.00,,,0.00,weatherlink.com 1.10,2013-03-18 09:11:00,
2013-03-18 04:26:00,30.8,29.0,29.77,East,97,0.0,6.0,93,0.00,,,0.00,weatherlink.com 1.10,2013-03-18 09:26:00,
2013-03-18 04:41:00,30.8,29.0,29.77,East,98,3.0,8.0,94,0.00,,,0.00,weatherlink.com 1.10,2013-03-18 09:41:00,
2013-03-18 04:56:00,30.8,29.0,29.77,East,101,6.0,8.0,94,0.00,,,0.00,weatherlink.com 1.10,2013-03-18 09:56:00,
2013-03-18 05:11:00,30.8,29.0,29.77,ESE,104,3.0,9.0,94,0.00,,,0.00,weatherlink.com 1.10,2013-03-18 10:11:00,
2013-03-18 05:26:00,30.8,29.0,29.78,ESE,104,0.0,0.0,94,0.00,,,0.00,weatherlink.com 1.10,2013-03-18 10:26:00,
2013-03-18 05:41:00,30.8,29.0,29.78,ESE,104,0.0,0.0,94,0.00,,,0.00,weatherlink.com 1.10,2013-03-18 10:41:00,
2013-03-18 05:56:00,30.8,29.0,29.77,ESE,104,0.0,0.0,94,0.00,,,0.00,weatherlink.com 1.10,2013-03-18 10:56:00,
2013-03-18 06:11:00,30.7,29.0,29.77,ESE,104,0.0,0.0,94,0.00,,,0.00,weatherlink.com 1.10,2013-03-18 11:11:00,
2013-03-18 06:41:00,30.7,29.0,29.77,ESE,104,0.0,0.0,94,0.00,,,0.00,weatherlink.com 1.10,2013-03-18 11:41:00,
2013-03-18 06:56:00,30.7,29.0,29.77,ESE,104,0.0,0.0,94,0.00,,,0.00,weatherlink.com 1.10,2013-03-18 11:56:00,
2013-03-18 07:11:00,30.8,29.0,29.76,ESE,104,0.0,0.0,94,0.00,,,0.00,weatherlink.com 1.10,2013-03-18 12:11:00,
2013-03-18 07:26:00,30.8,29.0,29.76,ESE,104,0.0,0.0,94,0.00,,,0.00,weatherlink.com 1.10,2013-03-18 12:26:00,
2013-03-18 07:56:00,31.2,30.0,29.76,ESE,105,0.0,0.0,94,0.00,,,0.00,weatherlink.com 1.10,2013-03-18 12:56:00,
2013-03-18 08:11:00,31.5,30.0,29.76,ESE,121,0.0,0.0,95,0.00,,,0.00,weatherlink.com 1.10,2013-03-18 13:11:00,
2013-03-18 08:56:00,32.6,31.0,29.75,SW,236,0.0,7.0,95,0.00,,,0.00,weatherlink.com 1.10,2013-03-18 13:56:00,
2013-03-18 09:11:00,33.2,32.0,29.76,West,273,7.0,19.0,95,0.00,,,0.00,weatherlink.com 1.10,2013-03-18 14:11:00,
2013-03-18 09:26:00,33.2,32.0,29.76,West,281,22.0,28.0,94,0.00,,,0.00,weatherlink.com 1.10,2013-03-18 14:26:00,
2013-03-18 09:41:00,32.8,31.0,29.77,West,278,15.0,26.0,93,0.00,,,0.00,weatherlink.com 1.10,2013-03-18 14:41:00,
2013-03-18 09:56:00,33.2,30.0,29.78,West,279,10.0,23.0,89,0.00,,,0.00,weatherlink.com 1.10,2013-03-18 14:56:00,
2013-03-18 10:11:00,33.9,29.0,29.79,WNW,300,10.0,29.0,82,0.01,,,0.01,weatherlink.com 1.10,2013-03-18 15:11:00,
2013-03-18 10:26:00,33.6,28.0,29.79,WNW,288,14.0,25.0,79,0.03,,,0.03,weatherlink.com 1.10,2013-03-18 15:26:00,
2013-03-18 10:41:00,33.7,27.0,29.79,WNW,288,10.0,24.0,75,0.04,,,0.04,weatherlink.com 1.10,2013-03-18 15:41:00,
2013-03-18 10:57:00,33.6,27.0,29.80,West,281,10.0,21.0,76,0.04,,,0.04,weatherlink.com 1.10,2013-03-18 15:57:00,
2013-03-18 11:12:00,33.8,29.0,29.80,WNW,300,18.0,24.0,81,0.04,,,0.05,weatherlink.com 1.10,2013-03-18 16:12:00,
2013-03-18 11:27:00,33.7,25.0,29.80,West,273,12.0,32.0,71,0.03,,,0.06,weatherlink.com 1.10,2013-03-18 16:27:00,
2013-03-18 11:42:00,33.4,24.0,29.81,West,263,21.0,35.0,69,0.02,,,0.06,weatherlink.com 1.10,2013-03-18 16:42:00,
2013-03-18 11:57:00,32.4,22.0,29.82,WNW,284,8.0,30.0,65,0.03,,,0.07,weatherlink.com 1.10,2013-03-18 16:57:00,
2013-03-18 12:12:00,32.1,23.0,29.83,WNW,294,13.0,32.0,70,0.03,,,0.08,weatherlink.com 1.10,2013-03-18 17:12:00,
2013-03-18 12:27:00,32.4,24.0,29.83,WNW,293,20.0,27.0,71,0.02,,,0.08,weatherlink.com 1.10,2013-03-18 17:27:00,
2013-03-18 12:42:00,33.0,25.0,29.84,WNW,285,4.0,25.0,73,0.02,,,0.08,weatherlink.com 1.10,2013-03-18 17:42:00,
2013-03-18 12:57:00,30.9,21.0,29.84,West,275,17.0,31.0,68,0.01,,,0.08,weatherlink.com 1.10,2013-03-18 17:57:00,
2013-03-18 13:12:00,31.7,23.0,29.85,WNW,284,15.0,28.0,69,0.00,,,0.08,weatherlink.com 1.10,2013-03-18 18:12:00,
2013-03-18 13:27:00,30.9,22.0,29.86,West,277,13.0,31.0,69,0.01,,,0.09,weatherlink.com 1.10,2013-03-18 18:27:00,
2013-03-18 13:42:00,31.2,22.0,29.86,NW,307,11.0,26.0,70,0.01,,,0.09,weatherlink.com 1.10,2013-03-18 18:42:00,
2013-03-18 13:57:00,30.6,21.0,29.87,WNW,302,14.0,30.0,68,0.01,,,0.09,weatherlink.com 1.10,2013-03-18 18:57:00,
2013-03-18 14:12:00,29.9,22.0,29.87,WNW,292,9.0,25.0,71,0.01,,,0.09,weatherlink.com 1.10,2013-03-18 19:12:00,
2013-03-18 14:27:00,29.5,20.0,29.88,West,277,19.0,35.0,69,0.00,,,0.09,weatherlink.com 1.10,2013-03-18 19:27:00,
2013-03-18 14:42:00,29.8,20.0,29.88,NW,311,28.0,29.0,66,0.00,,,0.09,weatherlink.com 1.10,2013-03-18 19:42:00,
2013-03-18 14:57:00,28.7,20.0,29.89,WNW,283,20.0,27.0,71,0.00,,,0.09,weatherlink.com 1.10,2013-03-18 19:57:00,
2013-03-18 15:12:00,29.0,20.0,29.89,West,269,11.0,26.0,68,0.01,,,0.10,weatherlink.com 1.10,2013-03-18 20:12:00,
2013-03-18 15:27:00,28.0,18.0,29.89,WNW,290,12.0,34.0,65,0.01,,,0.10,weatherlink.com 1.10,2013-03-18 20:27:00,
2013-03-18 15:42:00,28.7,18.0,29.89,WNW,292,11.0,34.0,65,0.01,,,0.10,weatherlink.com 1.10,2013-03-18 20:42:00,
2013-03-18 15:57:00,28.3,18.0,29.90,West,270,14.0,31.0,65,0.01,,,0.10,weatherlink.com 1.10,2013-03-18 20:57:00,
2013-03-18 16:12:00,27.7,17.0,29.90,WNW,288,16.0,31.0,64,0.00,,,0.10,weatherlink.com 1.10,2013-03-18 21:12:00,
2013-03-18 16:27:00,28.1,18.0,29.91,West,279,20.0,26.0,66,0.00,,,0.10,weatherlink.com 1.10,2013-03-18 21:27:00,
2013-03-18 16:42:00,27.6,17.0,29.91,West,275,19.0,30.0,64,0.00,,,0.10,weatherlink.com 1.10,2013-03-18 21:42:00,
2013-03-18 16:57:00,27.3,17.0,29.92,West,276,18.0,28.0,66,0.00,,,0.10,weatherlink.com 1.10,2013-03-18 21:57:00,
2013-03-18 17:12:00,27.1,17.0,29.93,WNW,289,19.0,26.0,66,0.00,,,0.10,weatherlink.com 1.10,2013-03-18 22:12:00,
2013-03-18 17:27:00,27.1,17.0,29.94,West,265,20.0,33.0,65,0.00,,,0.10,weatherlink.com 1.10,2013-03-18 22:27:00,
2013-03-18 17:42:00,27.0,17.0,29.94,WNW,287,13.0,24.0,67,0.00,,,0.10,weatherlink.com 1.10,2013-03-18 22:42:00,
2013-03-18 17:57:00,27.0,17.0,29.95,West,265,13.0,27.0,65,0.00,,,0.10,weatherlink.com 1.10,2013-03-18 22:57:00,
2013-03-18 18:12:00,27.2,17.0,29.95,West,271,12.0,25.0,65,0.00,,,0.10,weatherlink.com 1.10,2013-03-18 23:12:00,
2013-03-18 18:27:00,27.6,16.0,29.95,West,279,12.0,32.0,63,0.00,,,0.10,weatherlink.com 1.10,2013-03-18 23:27:00,
2013-03-18 18:42:00,27.2,16.0,29.95,West,267,20.0,31.0,63,0.00,,,0.10,weatherlink.com 1.10,2013-03-18 23:42:00,
2013-03-18 18:57:00,26.7,16.0,29.96,West,279,22.0,34.0,64,0.00,,,0.10,weatherlink.com 1.10,2013-03-18 23:57:00,
2013-03-18 19:13:00,26.4,16.0,29.96,West,281,12.0,27.0,65,0.00,,,0.10,weatherlink.com 1.10,2013-03-19 00:13:00,
2013-03-18 19:43:00,26.0,16.0,29.97,West,276,19.0,20.0,67,0.00,,,0.10,weatherlink.com 1.10,2013-03-19 00:43:00,
2013-03-18 19:58:00,25.9,17.0,29.98,West,277,4.0,18.0,68,0.00,,,0.10,weatherlink.com 1.10,2013-03-19 00:58:00,
2013-03-18 20:13:00,25.6,17.0,29.98,West,267,10.0,15.0,69,0.00,,,0.10,weatherlink.com 1.10,2013-03-19 01:13:00,
2013-03-18 20:28:00,25.6,17.0,29.98,West,278,9.0,16.0,69,0.00,,,0.10,weatherlink.com 1.10,2013-03-19 01:28:00,
2013-03-18 20:43:00,25.6,17.0,29.99,West,276,6.0,20.0,70,0.00,,,0.10,weatherlink.com 1.10,2013-03-19 01:43:00,
2013-03-18 20:58:00,25.4,17.0,29.99,West,277,6.0,15.0,71,0.00,,,0.10,weatherlink.com 1.10,2013-03-19 01:58:00,
2013-03-18 21:13:00,25.2,17.0,30.00,WNW,284,8.0,15.0,72,0.00,,,0.10,weatherlink.com 1.10,2013-03-19 02:13:00,
2013-03-18 21:28:00,25.1,18.0,30.01,WNW,288,12.0,16.0,73,0.00,,,0.10,weatherlink.com 1.10,2013-03-19 02:28:00,
2013-03-18 21:43:00,24.9,18.0,30.01,WNW,291,7.0,14.0,74,0.00,,,0.10,weatherlink.com 1.10,2013-03-19 02:43:00,
2013-03-18 21:58:00,24.8,18.0,30.02,WNW,288,9.0,17.0,75,0.00,,,0.10,weatherlink.com 1.10,2013-03-19 02:58:00,
2013-03-18 22:13:00,24.5,18.0,30.03,WNW,290,10.0,19.0,75,0.00,,,0.10,weatherlink.com 1.10,2013-03-19 03:13:00,
2013-03-18 22:28:00,24.3,17.0,30.04,WNW,303,8.0,25.0,75,0.00,,,0.10,weatherlink.com 1.10,2013-03-19 03:28:00,
2013-03-18 22:43:00,24.2,16.0,30.04,West,273,11.0,23.0,72,0.00,,,0.10,weatherlink.com 1.10,2013-03-19 03:43:00,
2013-03-18 22:58:00,23.7,16.0,30.03,West,280,16.0,29.0,72,0.00,,,0.10,weatherlink.com 1.10,2013-03-19 03:58:00,
2013-03-18 23:13:00,23.5,15.0,30.02,West,273,8.0,20.0,71,0.00,,,0.10,weatherlink.com 1.10,2013-03-19 04:13:00,
2013-03-18 23:28:00,23.1,15.0,30.01,NW,306,6.0,21.0,71,0.00,,,0.10,weatherlink.com 1.10,2013-03-19 04:28:00,
2013-03-18 23:43:00,22.9,14.0,30.01,WNW,302,6.0,23.0,70,0.00,,,0.10,weatherlink.com 1.10,2013-03-19 04:43:00,
2013-03-18 23:58:00,22.4,14.0,30.03,WNW,288,5.0,20.0,71,0.00,,,0.10,weatherlink.com 1.10,2013-03-19 04:58:00,